La Paz, Honduras
Current Conditions -  °F | °C
As of 3:00 PM on Wednesday 26 Nov 2014 (Local Time) from MHTG Reporting Station
Broken Clouds Broken Clouds  
Wind Chill: 25°   Ceiling: 2800
Heat Index: 26°   Visibility: 6mi
Dew Point: 18°   Wind: 23mph
Humidity: 65%   Direction: 360°N
Pressure: 30.03"   Gusts: NA
Location:  14.2°N, 87.4°W
Report Text: MHTG 262100Z 36020KT 9999 FEW022 BKN028 25/18 Q1017 A3003NOSIG
Loading
Personal Weather Stations






























Interactive Weather Map New forecast layout! Learn more

10-Day Weather Forecast

Advertisements
Track Severe Weather on mobile